sensor_id;sensor_type;location;lat;lon;timestamp;temperature;humidity
13436;DHT22;6790;49.520;8.504;2022-12-07T00:01:40;4.30;99.90
13436;DHT22;6790;49.520;8.504;2022-12-07T00:04:09;4.30;99.90
13436;DHT22;6790;49.520;8.504;2022-12-07T00:06:42;4.30;99.90
13436;DHT22;6790;49.520;8.504;2022-12-07T00:09:14;4.30;99.90
13436;DHT22;6790;49.520;8.504;2022-12-07T00:11:41;4.30;99.90
13436;DHT22;6790;49.520;8.504;2022-12-07T00:14:10;4.30;99.90
13436;DHT22;6790;49.520;8.504;2022-12-07T00:16:37;4.30;99.90
13436;DHT22;6790;49.520;8.504;2022-12-07T00:19:04;4.30;99.90
13436;DHT22;6790;49.520;8.504;2022-12-07T00:21:32;4.30;99.90
13436;DHT22;6790;49.520;8.504;2022-12-07T00:24:00;4.40;99.90
13436;DHT22;6790;49.520;8.504;2022-12-07T00:26:28;4.40;99.90
13436;DHT22;6790;49.520;8.504;2022-12-07T00:28:58;4.40;99.90
13436;DHT22;6790;49.520;8.504;2022-12-07T00:31:30;4.30;99.90
13436;DHT22;6790;49.520;8.504;2022-12-07T00:33:58;4.30;99.90
13436;DHT22;6790;49.520;8.504;2022-12-07T00:36:25;4.20;99.90
13436;DHT22;6790;49.520;8.504;2022-12-07T00:38:51;4.30;99.90
13436;DHT22;6790;49.520;8.504;2022-12-07T00:41:19;4.30;99.90
13436;DHT22;6790;49.520;8.504;2022-12-07T00:43:48;4.30;99.90
13436;DHT22;6790;49.520;8.504;2022-12-07T00:46:15;4.30;99.90
13436;DHT22;6790;49.520;8.504;2022-12-07T00:48:41;4.10;99.90
13436;DHT22;6790;49.520;8.504;2022-12-07T00:51:09;4.10;99.90
13436;DHT22;6790;49.520;8.504;2022-12-07T00:53:35;4.20;99.90
13436;DHT22;6790;49.520;8.504;2022-12-07T00:56:06;4.10;99.90
13436;DHT22;6790;49.520;8.504;2022-12-07T00:58:32;4.10;99.90
13436;DHT22;6790;49.520;8.504;2022-12-07T01:01:01;4.10;99.90
13436;DHT22;6790;49.520;8.504;2022-12-07T01:03:27;4.10;99.90
13436;DHT22;6790;49.520;8.504;2022-12-07T01:05:54;4.20;99.90
13436;DHT22;6790;49.520;8.504;2022-12-07T01:08:22;4.20;99.90
13436;DHT22;6790;49.520;8.504;2022-12-07T01:10:49;4.20;99.90
13436;DHT22;6790;49.520;8.504;2022-12-07T01:13:15;4.10;99.90
13436;DHT22;6790;49.520;8.504;2022-12-07T01:15:42;4.10;99.90
13436;DHT22;6790;49.520;8.504;2022-12-07T01:18:09;4.10;99.90
13436;DHT22;6790;49.520;8.504;2022-12-07T01:20:35;4.10;99.90
13436;DHT22;6790;49.520;8.504;2022-12-07T01:23:02;4.10;99.90
13436;DHT22;6790;49.520;8.504;2022-12-07T01:25:28;4.10;99.90
13436;DHT22;6790;49.520;8.504;2022-12-07T01:27:54;4.10;99.90
13436;DHT22;6790;49.520;8.504;2022-12-07T01:30:19;4.10;99.90
13436;DHT22;6790;49.520;8.504;2022-12-07T01:32:45;4.10;99.90
13436;DHT22;6790;49.520;8.504;2022-12-07T01:35:11;4.10;99.90
13436;DHT22;6790;49.520;8.504;2022-12-07T01:37:37;4.10;99.90
13436;DHT22;6790;49.520;8.504;2022-12-07T01:40:06;4.10;99.90
13436;DHT22;6790;49.520;8.504;2022-12-07T01:42:33;4.10;99.90
13436;DHT22;6790;49.520;8.504;2022-12-07T01:47:46;4.00;99.90
13436;DHT22;6790;49.520;8.504;2022-12-07T01:50:16;4.10;99.90
13436;DHT22;6790;49.520;8.504;2022-12-07T01:52:44;4.10;99.90
13436;DHT22;6790;49.520;8.504;2022-12-07T01:55:13;4.10;99.90
13436;DHT22;6790;49.520;8.504;2022-12-07T01:57:45;4.10;99.90
13436;DHT22;6790;49.520;8.504;2022-12-07T02:00:14;4.00;99.90
13436;DHT22;6790;49.520;8.504;2022-12-07T02:02:55;4.00;99.90
13436;DHT22;6790;49.520;8.504;2022-12-07T02:05:26;4.00;99.90
13436;DHT22;6790;49.520;8.504;2022-12-07T02:07:54;4.00;99.90
13436;DHT22;6790;49.520;8.504;2022-12-07T02:10:22;4.00;99.90
13436;DHT22;6790;49.520;8.504;2022-12-07T02:13:19;4.00;99.90
13436;DHT22;6790;49.520;8.504;2022-12-07T02:16:21;4.00;99.90
13436;DHT22;6790;49.520;8.504;2022-12-07T02:22:42;4.10;99.90
13436;DHT22;6790;49.520;8.504;2022-12-07T02:31:50;4.20;99.90
13436;DHT22;6790;49.520;8.504;2022-12-07T02:34:41;4.10;99.90
13436;DHT22;6790;49.520;8.504;2022-12-07T02:37:35;4.00;99.90
13436;DHT22;6790;49.520;8.504;2022-12-07T02:40:51;3.80;99.90
13436;DHT22;6790;49.520;8.504;2022-12-07T02:46:25;3.80;99.90
13436;DHT22;6790;49.520;8.504;2022-12-07T02:48:55;3.90;99.90
13436;DHT22;6790;49.520;8.504;2022-12-07T02:51:22;3.90;99.90
13436;DHT22;6790;49.520;8.504;2022-12-07T02:53:48;3.90;99.90
13436;DHT22;6790;49.520;8.504;2022-12-07T03:10:56;4.10;99.90
13436;DHT22;6790;49.520;8.504;2022-12-07T03:13:40;4.10;99.90
13436;DHT22;6790;49.520;8.504;2022-12-07T03:18:55;4.20;99.90
13436;DHT22;6790;49.520;8.504;2022-12-07T03:21:31;4.20;99.90
13436;DHT22;6790;49.520;8.504;2022-12-07T03:24:01;4.20;99.90
13436;DHT22;6790;49.520;8.504;2022-12-07T03:26:40;4.30;99.90
13436;DHT22;6790;49.520;8.504;2022-12-07T03:30:10;4.30;99.90
13436;DHT22;6790;49.520;8.504;2022-12-07T03:43:31;4.40;99.90
13436;DHT22;6790;49.520;8.504;2022-12-07T03:51:31;4.50;99.90
13436;DHT22;6790;49.520;8.504;2022-12-07T03:54:15;4.50;99.90
13436;DHT22;6790;49.520;8.504;2022-12-07T03:56:46;4.50;99.90
13436;DHT22;6790;49.520;8.504;2022-12-07T03:59:14;4.50;99.90
13436;DHT22;6790;49.520;8.504;2022-12-07T04:01:44;4.50;99.90
13436;DHT22;6790;49.520;8.504;2022-12-07T04:04:13;4.50;99.90
13436;DHT22;6790;49.520;8.504;2022-12-07T04:06:38;4.50;99.90
13436;DHT22;6790;49.520;8.504;2022-12-07T04:09:04;4.50;99.90
13436;DHT22;6790;49.520;8.504;2022-12-07T04:11:30;4.50;99.90
13436;DHT22;6790;49.520;8.504;2022-12-07T04:13:55;4.50;99.90
13436;DHT22;6790;49.520;8.504;2022-12-07T04:16:39;4.50;99.90
13436;DHT22;6790;49.520;8.504;2022-12-07T04:19:05;4.50;99.90
13436;DHT22;6790;49.520;8.504;2022-12-07T04:21:30;4.50;99.90
13436;DHT22;6790;49.520;8.504;2022-12-07T04:23:56;4.50;99.90
13436;DHT22;6790;49.520;8.504;2022-12-07T04:26:22;4.50;99.90
13436;DHT22;6790;49.520;8.504;2022-12-07T04:28:47;4.50;99.90
13436;DHT22;6790;49.520;8.504;2022-12-07T04:31:13;4.50;99.90
13436;DHT22;6790;49.520;8.504;2022-12-07T04:33:39;4.50;99.90
13436;DHT22;6790;49.520;8.504;2022-12-07T04:36:05;4.50;99.90
13436;DHT22;6790;49.520;8.504;2022-12-07T04:38:31;4.50;99.90
13436;DHT22;6790;49.520;8.504;2022-12-07T04:40:56;4.50;99.90
13436;DHT22;6790;49.520;8.504;2022-12-07T04:43:22;4.50;99.90
13436;DHT22;6790;49.520;8.504;2022-12-07T04:45:48;4.50;99.90
13436;DHT22;6790;49.520;8.504;2022-12-07T04:48:14;4.50;99.90
13436;DHT22;6790;49.520;8.504;2022-12-07T04:50:40;4.50;99.90
13436;DHT22;6790;49.520;8.504;2022-12-07T04:53:05;4.40;99.90
13436;DHT22;6790;49.520;8.504;2022-12-07T04:55:31;4.40;99.90
13436;DHT22;6790;49.520;8.504;2022-12-07T04:57:57;4.40;99.90
13436;DHT22;6790;49.520;8.504;2022-12-07T05:00:22;4.40;99.90
13436;DHT22;6790;49.520;8.504;2022-12-07T05:02:48;4.40;99.90
13436;DHT22;6790;49.520;8.504;2022-12-07T05:05:14;4.40;99.90
13436;DHT22;6790;49.520;8.504;2022-12-07T05:07:39;4.40;99.90
13436;DHT22;6790;49.520;8.504;2022-12-07T05:10:06;4.40;99.90
13436;DHT22;6790;49.520;8.504;2022-12-07T05:12:32;4.40;99.90
13436;DHT22;6790;49.520;8.504;2022-12-07T05:14:58;4.40;99.90
13436;DHT22;6790;49.520;8.504;2022-12-07T05:17:23;4.40;99.90
13436;DHT22;6790;49.520;8.504;2022-12-07T05:19:49;4.40;99.90
13436;DHT22;6790;49.520;8.504;2022-12-07T05:22:15;4.40;99.90
13436;DHT22;6790;49.520;8.504;2022-12-07T05:24:40;4.40;99.90
13436;DHT22;6790;49.520;8.504;2022-12-07T05:27:06;4.40;99.90
13436;DHT22;6790;49.520;8.504;2022-12-07T05:29:33;4.40;99.90
13436;DHT22;6790;49.520;8.504;2022-12-07T05:31:59;4.40;99.90
13436;DHT22;6790;49.520;8.504;2022-12-07T05:34:24;4.40;99.90
13436;DHT22;6790;49.520;8.504;2022-12-07T05:36:50;4.40;99.90
13436;DHT22;6790;49.520;8.504;2022-12-07T05:39:16;4.40;99.90
13436;DHT22;6790;49.520;8.504;2022-12-07T05:41:42;4.40;99.90
13436;DHT22;6790;49.520;8.504;2022-12-07T05:44:26;4.30;99.90
13436;DHT22;6790;49.520;8.504;2022-12-07T05:46:51;4.30;99.90
13436;DHT22;6790;49.520;8.504;2022-12-07T05:49:17;4.30;99.90
13436;DHT22;6790;49.520;8.504;2022-12-07T05:51:43;4.30;99.90
13436;DHT22;6790;49.520;8.504;2022-12-07T05:54:08;4.30;99.90
13436;DHT22;6790;49.520;8.504;2022-12-07T05:56:34;4.30;99.90
13436;DHT22;6790;49.520;8.504;2022-12-07T05:59:00;4.30;99.90
13436;DHT22;6790;49.520;8.504;2022-12-07T06:01:44;4.30;99.90
13436;DHT22;6790;49.520;8.504;2022-12-07T06:04:10;4.30;99.90
13436;DHT22;6790;49.520;8.504;2022-12-07T06:06:35;4.30;99.90
13436;DHT22;6790;49.520;8.504;2022-12-07T06:09:02;4.30;99.90
13436;DHT22;6790;49.520;8.504;2022-12-07T06:11:28;4.20;99.90
13436;DHT22;6790;49.520;8.504;2022-12-07T06:14:12;4.20;99.90
13436;DHT22;6790;49.520;8.504;2022-12-07T06:16:38;4.20;99.90
13436;DHT22;6790;49.520;8.504;2022-12-07T06:19:03;4.20;99.90
13436;DHT22;6790;49.520;8.504;2022-12-07T06:21:29;4.20;99.90
13436;DHT22;6790;49.520;8.504;2022-12-07T06:23:55;4.20;99.90
13436;DHT22;6790;49.520;8.504;2022-12-07T06:26:20;4.20;99.90
13436;DHT22;6790;49.520;8.504;2022-12-07T06:28:46;4.20;99.90
13436;DHT22;6790;49.520;8.504;2022-12-07T06:31:12;4.20;99.90
13436;DHT22;6790;49.520;8.504;2022-12-07T06:33:38;4.20;99.90
13436;DHT22;6790;49.520;8.504;2022-12-07T06:36:03;4.20;99.90
13436;DHT22;6790;49.520;8.504;2022-12-07T06:38:29;4.20;99.90
13436;DHT22;6790;49.520;8.504;2022-12-07T06:40:55;4.20;99.90
13436;DHT22;6790;49.520;8.504;2022-12-07T06:43:21;4.20;99.90
13436;DHT22;6790;49.520;8.504;2022-12-07T06:45:47;4.30;99.90
13436;DHT22;6790;49.520;8.504;2022-12-07T06:48:12;4.30;99.90
13436;DHT22;6790;49.520;8.504;2022-12-07T06:50:38;4.30;99.90
13436;DHT22;6790;49.520;8.504;2022-12-07T06:53:04;4.30;99.90
13436;DHT22;6790;49.520;8.504;2022-12-07T06:55:29;4.30;99.90
13436;DHT22;6790;49.520;8.504;2022-12-07T06:57:55;4.30;99.90
13436;DHT22;6790;49.520;8.504;2022-12-07T07:00:21;4.20;99.90
13436;DHT22;6790;49.520;8.504;2022-12-07T07:02:47;4.30;99.90
13436;DHT22;6790;49.520;8.504;2022-12-07T07:05:12;4.30;99.90
13436;DHT22;6790;49.520;8.504;2022-12-07T07:07:38;4.30;99.90
13436;DHT22;6790;49.520;8.504;2022-12-07T07:10:04;4.30;99.90
13436;DHT22;6790;49.520;8.504;2022-12-07T07:12:30;4.30;99.90
13436;DHT22;6790;49.520;8.504;2022-12-07T07:14:56;4.30;99.90
13436;DHT22;6790;49.520;8.504;2022-12-07T07:17:21;4.30;99.90
13436;DHT22;6790;49.520;8.504;2022-12-07T07:19:47;4.30;99.90
13436;DHT22;6790;49.520;8.504;2022-12-07T07:22:13;4.40;99.90
13436;DHT22;6790;49.520;8.504;2022-12-07T07:24:38;4.40;99.90
13436;DHT22;6790;49.520;8.504;2022-12-07T07:27:04;4.30;99.90
13436;DHT22;6790;49.520;8.504;2022-12-07T07:29:30;4.40;99.90
13436;DHT22;6790;49.520;8.504;2022-12-07T07:31:55;4.40;99.90
13436;DHT22;6790;49.520;8.504;2022-12-07T07:34:21;4.40;99.90
13436;DHT22;6790;49.520;8.504;2022-12-07T07:36:47;4.40;99.90
13436;DHT22;6790;49.520;8.504;2022-12-07T07:39:12;4.40;99.90
13436;DHT22;6790;49.520;8.504;2022-12-07T07:41:38;4.50;99.90
13436;DHT22;6790;49.520;8.504;2022-12-07T07:44:04;4.40;99.90
13436;DHT22;6790;49.520;8.504;2022-12-07T07:46:30;4.50;99.90
13436;DHT22;6790;49.520;8.504;2022-12-07T07:48:55;4.50;99.90
13436;DHT22;6790;49.520;8.504;2022-12-07T07:51:21;4.50;99.90
13436;DHT22;6790;49.520;8.504;2022-12-07T07:53:47;4.50;99.90
13436;DHT22;6790;49.520;8.504;2022-12-07T07:56:12;4.50;99.90
13436;DHT22;6790;49.520;8.504;2022-12-07T07:58:38;4.60;99.90
13436;DHT22;6790;49.520;8.504;2022-12-07T08:01:06;4.60;99.90
13436;DHT22;6790;49.520;8.504;2022-12-07T08:03:32;4.60;99.90
13436;DHT22;6790;49.520;8.504;2022-12-07T08:05:57;4.60;99.90
13436;DHT22;6790;49.520;8.504;2022-12-07T08:08:23;4.70;99.90
13436;DHT22;6790;49.520;8.504;2022-12-07T08:10:49;4.70;99.90
13436;DHT22;6790;49.520;8.504;2022-12-07T08:13:16;4.60;99.90
13436;DHT22;6790;49.520;8.504;2022-12-07T08:15:46;4.60;99.90
13436;DHT22;6790;49.520;8.504;2022-12-07T08:18:14;4.70;99.90
13436;DHT22;6790;49.520;8.504;2022-12-07T08:20:40;4.70;99.90
13436;DHT22;6790;49.520;8.504;2022-12-07T08:23:07;4.70;99.90
13436;DHT22;6790;49.520;8.504;2022-12-07T08:25:34;4.70;99.90
13436;DHT22;6790;49.520;8.504;2022-12-07T08:28:00;4.70;99.90
13436;DHT22;6790;49.520;8.504;2022-12-07T08:30:27;4.80;99.90
13436;DHT22;6790;49.520;8.504;2022-12-07T08:32:54;4.80;99.90
13436;DHT22;6790;49.520;8.504;2022-12-07T08:35:19;4.80;99.90
13436;DHT22;6790;49.520;8.504;2022-12-07T08:37:45;4.80;99.90
13436;DHT22;6790;49.520;8.504;2022-12-07T08:40:12;4.80;99.90
13436;DHT22;6790;49.520;8.504;2022-12-07T08:42:44;4.80;99.90
13436;DHT22;6790;49.520;8.504;2022-12-07T08:45:15;4.80;99.90
13436;DHT22;6790;49.520;8.504;2022-12-07T08:47:44;4.80;99.90
13436;DHT22;6790;49.520;8.504;2022-12-07T08:50:13;4.80;99.90
13436;DHT22;6790;49.520;8.504;2022-12-07T08:52:40;4.90;99.90
13436;DHT22;6790;49.520;8.504;2022-12-07T08:55:11;4.90;99.90
13436;DHT22;6790;49.520;8.504;2022-12-07T08:57:38;4.90;99.90
13436;DHT22;6790;49.520;8.504;2022-12-07T09:00:05;4.80;99.90
13436;DHT22;6790;49.520;8.504;2022-12-07T09:02:32;4.90;99.90
13436;DHT22;6790;49.520;8.504;2022-12-07T09:04:58;4.90;99.90
13436;DHT22;6790;49.520;8.504;2022-12-07T09:07:24;4.90;99.90
13436;DHT22;6790;49.520;8.504;2022-12-07T09:09:50;5.00;99.90
13436;DHT22;6790;49.520;8.504;2022-12-07T09:12:16;5.00;99.90
13436;DHT22;6790;49.520;8.504;2022-12-07T09:14:42;5.00;99.90
13436;DHT22;6790;49.520;8.504;2022-12-07T09:17:09;5.10;99.90
13436;DHT22;6790;49.520;8.504;2022-12-07T09:19:36;5.10;99.90
13436;DHT22;6790;49.520;8.504;2022-12-07T09:22:03;5.10;99.90
13436;DHT22;6790;49.520;8.504;2022-12-07T09:24:30;5.20;99.90
13436;DHT22;6790;49.520;8.504;2022-12-07T09:26:57;5.20;99.90
13436;DHT22;6790;49.520;8.504;2022-12-07T09:29:23;5.20;99.90
13436;DHT22;6790;49.520;8.504;2022-12-07T09:31:49;5.20;99.90
13436;DHT22;6790;49.520;8.504;2022-12-07T09:34:14;5.30;99.90
13436;DHT22;6790;49.520;8.504;2022-12-07T09:36:40;5.30;99.90
13436;DHT22;6790;49.520;8.504;2022-12-07T09:39:07;5.30;99.90
13436;DHT22;6790;49.520;8.504;2022-12-07T09:41:33;5.40;99.90
13436;DHT22;6790;49.520;8.504;2022-12-07T09:44:12;5.40;99.90
13436;DHT22;6790;49.520;8.504;2022-12-07T09:46:42;5.50;99.90
13436;DHT22;6790;49.520;8.504;2022-12-07T09:49:12;5.60;99.90
13436;DHT22;6790;49.520;8.504;2022-12-07T09:51:43;5.60;99.90
13436;DHT22;6790;49.520;8.504;2022-12-07T09:54:13;5.70;99.90
13436;DHT22;6790;49.520;8.504;2022-12-07T09:56:40;5.70;99.90
13436;DHT22;6790;49.520;8.504;2022-12-07T09:59:06;5.80;99.90
13436;DHT22;6790;49.520;8.504;2022-12-07T10:01:38;5.80;99.90
13436;DHT22;6790;49.520;8.504;2022-12-07T10:04:19;5.80;99.90
13436;DHT22;6790;49.520;8.504;2022-12-07T10:06:49;5.80;99.90
13436;DHT22;6790;49.520;8.504;2022-12-07T10:09:18;5.90;99.90
13436;DHT22;6790;49.520;8.504;2022-12-07T10:12:17;5.90;99.90
13436;DHT22;6790;49.520;8.504;2022-12-07T10:15:00;6.00;99.90
13436;DHT22;6790;49.520;8.504;2022-12-07T10:17:41;6.00;99.90
13436;DHT22;6790;49.520;8.504;2022-12-07T10:25:31;6.00;99.90
13436;DHT22;6790;49.520;8.504;2022-12-07T10:30:33;6.00;99.90
13436;DHT22;6790;49.520;8.504;2022-12-07T10:33:30;6.10;99.90
13436;DHT22;6790;49.520;8.504;2022-12-07T10:39:15;6.10;99.90
13436;DHT22;6790;49.520;8.504;2022-12-07T10:44:28;6.10;99.90
13436;DHT22;6790;49.520;8.504;2022-12-07T10:47:01;6.10;99.90
13436;DHT22;6790;49.520;8.504;2022-12-07T10:56:01;6.40;99.90
13436;DHT22;6790;49.520;8.504;2022-12-07T11:07:22;6.50;99.90
13436;DHT22;6790;49.520;8.504;2022-12-07T11:10:26;6.50;99.90
13436;DHT22;6790;49.520;8.504;2022-12-07T11:15:57;6.40;99.90
13436;DHT22;6790;49.520;8.504;2022-12-07T11:18:45;6.50;99.90
13436;DHT22;6790;49.520;8.504;2022-12-07T11:24:22;6.40;99.90
13436;DHT22;6790;49.520;8.504;2022-12-07T11:30:16;6.40;99.90
13436;DHT22;6790;49.520;8.504;2022-12-07T11:33:04;6.40;99.90
13436;DHT22;6790;49.520;8.504;2022-12-07T11:38:47;6.30;99.90
13436;DHT22;6790;49.520;8.504;2022-12-07T11:41:26;6.30;99.90
13436;DHT22;6790;49.520;8.504;2022-12-07T11:43:56;6.30;99.90
13436;DHT22;6790;49.520;8.504;2022-12-07T11:51:57;6.60;99.90
13436;DHT22;6790;49.520;8.504;2022-12-07T11:54:32;6.60;99.90
13436;DHT22;6790;49.520;8.504;2022-12-07T11:57:11;6.60;99.90
13436;DHT22;6790;49.520;8.504;2022-12-07T11:59:52;6.80;99.90
13436;DHT22;6790;49.520;8.504;2022-12-07T12:02:28;7.00;99.90
13436;DHT22;6790;49.520;8.504;2022-12-07T12:07:39;7.10;99.90
13436;DHT22;6790;49.520;8.504;2022-12-07T12:10:16;7.10;99.90
13436;DHT22;6790;49.520;8.504;2022-12-07T12:21:31;6.70;99.90
13436;DHT22;6790;49.520;8.504;2022-12-07T12:24:24;6.70;99.90
13436;DHT22;6790;49.520;8.504;2022-12-07T12:26:56;6.70;99.90
13436;DHT22;6790;49.520;8.504;2022-12-07T12:29:37;6.70;99.90
13436;DHT22;6790;49.520;8.504;2022-12-07T12:32:51;6.60;99.90
13436;DHT22;6790;49.520;8.504;2022-12-07T12:37:49;6.50;99.90
13436;DHT22;6790;49.520;8.504;2022-12-07T12:42:47;6.50;99.90
13436;DHT22;6790;49.520;8.504;2022-12-07T12:45:29;6.60;99.90
13436;DHT22;6790;49.520;8.504;2022-12-07T12:48:03;6.60;99.90
13436;DHT22;6790;49.520;8.504;2022-12-07T12:50:33;6.60;99.90
13436;DHT22;6790;49.520;8.504;2022-12-07T12:53:12;6.60;99.90
13436;DHT22;6790;49.520;8.504;2022-12-07T13:01:30;6.60;99.90
13436;DHT22;6790;49.520;8.504;2022-12-07T13:03:54;6.60;99.90
13436;DHT22;6790;49.520;8.504;2022-12-07T13:08:50;6.50;99.90
13436;DHT22;6790;49.520;8.504;2022-12-07T13:11:35;6.50;99.90
13436;DHT22;6790;49.520;8.504;2022-12-07T13:15:22;6.50;99.90
13436;DHT22;6790;49.520;8.504;2022-12-07T13:19:56;6.50;99.90
13436;DHT22;6790;49.520;8.504;2022-12-07T13:28:21;6.50;99.90
13436;DHT22;6790;49.520;8.504;2022-12-07T13:31:41;6.50;99.90
13436;DHT22;6790;49.520;8.504;2022-12-07T13:33:56;6.50;99.90
13436;DHT22;6790;49.520;8.504;2022-12-07T13:36:30;6.50;99.90
13436;DHT22;6790;49.520;8.504;2022-12-07T13:39:21;6.60;99.90
13436;DHT22;6790;49.520;8.504;2022-12-07T13:41:53;6.60;99.90
13436;DHT22;6790;49.520;8.504;2022-12-07T13:44:34;6.50;99.90
13436;DHT22;6790;49.520;8.504;2022-12-07T13:49:56;6.40;99.90
13436;DHT22;6790;49.520;8.504;2022-12-07T13:52:29;6.40;99.90
13436;DHT22;6790;49.520;8.504;2022-12-07T13:55:01;6.40;99.90
13436;DHT22;6790;49.520;8.504;2022-12-07T13:57:37;6.40;99.90
13436;DHT22;6790;49.520;8.504;2022-12-07T14:00:05;6.40;99.90
13436;DHT22;6790;49.520;8.504;2022-12-07T14:02:34;6.30;99.90
13436;DHT22;6790;49.520;8.504;2022-12-07T14:05:27;6.30;99.90
13436;DHT22;6790;49.520;8.504;2022-12-07T14:07:58;6.30;99.90
13436;DHT22;6790;49.520;8.504;2022-12-07T14:10:29;6.30;99.90
13436;DHT22;6790;49.520;8.504;2022-12-07T14:12:56;6.30;99.90
13436;DHT22;6790;49.520;8.504;2022-12-07T14:15:28;6.20;99.90
13436;DHT22;6790;49.520;8.504;2022-12-07T14:17:57;6.20;99.90
13436;DHT22;6790;49.520;8.504;2022-12-07T14:20:38;6.30;99.90
13436;DHT22;6790;49.520;8.504;2022-12-07T14:23:19;6.30;99.90
13436;DHT22;6790;49.520;8.504;2022-12-07T14:25:49;6.30;99.90
13436;DHT22;6790;49.520;8.504;2022-12-07T14:28:34;6.30;99.90
13436;DHT22;6790;49.520;8.504;2022-12-07T14:31:01;6.30;99.90
13436;DHT22;6790;49.520;8.504;2022-12-07T14:33:28;6.30;99.90
13436;DHT22;6790;49.520;8.504;2022-12-07T14:35:54;6.30;99.90
13436;DHT22;6790;49.520;8.504;2022-12-07T14:38:25;6.30;99.90
13436;DHT22;6790;49.520;8.504;2022-12-07T14:40:52;6.30;99.90
13436;DHT22;6790;49.520;8.504;2022-12-07T14:43:20;6.30;99.90
13436;DHT22;6790;49.520;8.504;2022-12-07T14:45:46;6.20;99.90
13436;DHT22;6790;49.520;8.504;2022-12-07T14:48:13;6.20;99.90
13436;DHT22;6790;49.520;8.504;2022-12-07T14:50:52;6.20;99.90
13436;DHT22;6790;49.520;8.504;2022-12-07T14:53:21;6.10;99.90
13436;DHT22;6790;49.520;8.504;2022-12-07T14:55:52;6.10;99.90
13436;DHT22;6790;49.520;8.504;2022-12-07T14:58:18;6.10;99.90
13436;DHT22;6790;49.520;8.504;2022-12-07T15:00:44;6.10;99.90
13436;DHT22;6790;49.520;8.504;2022-12-07T15:03:10;6.10;99.90
13436;DHT22;6790;49.520;8.504;2022-12-07T15:05:38;6.10;99.90
13436;DHT22;6790;49.520;8.504;2022-12-07T15:08:04;6.00;99.90
13436;DHT22;6790;49.520;8.504;2022-12-07T15:10:32;6.00;99.90
13436;DHT22;6790;49.520;8.504;2022-12-07T15:13:00;6.00;99.90
13436;DHT22;6790;49.520;8.504;2022-12-07T15:15:46;6.00;99.90
13436;DHT22;6790;49.520;8.504;2022-12-07T15:18:12;6.00;99.90
13436;DHT22;6790;49.520;8.504;2022-12-07T15:20:38;6.00;99.90
13436;DHT22;6790;49.520;8.504;2022-12-07T15:23:04;5.90;99.90
13436;DHT22;6790;49.520;8.504;2022-12-07T15:25:29;6.00;99.90
13436;DHT22;6790;49.520;8.504;2022-12-07T15:27:55;6.00;99.90
13436;DHT22;6790;49.520;8.504;2022-12-07T15:30:21;5.90;99.90
13436;DHT22;6790;49.520;8.504;2022-12-07T15:32:50;6.00;99.90
13436;DHT22;6790;49.520;8.504;2022-12-07T15:35:16;6.00;99.90
13436;DHT22;6790;49.520;8.504;2022-12-07T15:37:42;6.00;99.90
13436;DHT22;6790;49.520;8.504;2022-12-07T15:40:08;5.90;99.90
13436;DHT22;6790;49.520;8.504;2022-12-07T15:42:35;5.90;99.90
13436;DHT22;6790;49.520;8.504;2022-12-07T15:45:01;5.90;99.90
13436;DHT22;6790;49.520;8.504;2022-12-07T15:47:31;5.90;99.90
13436;DHT22;6790;49.520;8.504;2022-12-07T15:49:58;5.90;99.90
13436;DHT22;6790;49.520;8.504;2022-12-07T15:52:24;5.90;99.90
13436;DHT22;6790;49.520;8.504;2022-12-07T15:54:50;5.90;99.90
13436;DHT22;6790;49.520;8.504;2022-12-07T15:57:16;5.90;99.90
13436;DHT22;6790;49.520;8.504;2022-12-07T15:59:41;5.90;99.90
13436;DHT22;6790;49.520;8.504;2022-12-07T16:02:09;5.90;99.90
13436;DHT22;6790;49.520;8.504;2022-12-07T16:04:35;5.90;99.90
13436;DHT22;6790;49.520;8.504;2022-12-07T16:07:02;5.90;99.90
13436;DHT22;6790;49.520;8.504;2022-12-07T16:09:28;5.90;99.90
13436;DHT22;6790;49.520;8.504;2022-12-07T16:11:54;5.90;99.90
13436;DHT22;6790;49.520;8.504;2022-12-07T16:14:20;5.90;99.90
13436;DHT22;6790;49.520;8.504;2022-12-07T16:16:46;5.90;99.90
13436;DHT22;6790;49.520;8.504;2022-12-07T16:19:12;5.80;99.90
13436;DHT22;6790;49.520;8.504;2022-12-07T16:21:38;5.80;99.90
13436;DHT22;6790;49.520;8.504;2022-12-07T16:24:04;5.80;99.90
13436;DHT22;6790;49.520;8.504;2022-12-07T16:26:31;5.80;99.90
13436;DHT22;6790;49.520;8.504;2022-12-07T16:28:57;5.80;99.90
13436;DHT22;6790;49.520;8.504;2022-12-07T16:31:26;5.80;99.90
13436;DHT22;6790;49.520;8.504;2022-12-07T16:33:57;5.70;99.90
13436;DHT22;6790;49.520;8.504;2022-12-07T16:36:23;5.70;99.90
13436;DHT22;6790;49.520;8.504;2022-12-07T16:38:50;5.70;99.90
13436;DHT22;6790;49.520;8.504;2022-12-07T16:41:16;5.70;99.90
13436;DHT22;6790;49.520;8.504;2022-12-07T16:43:43;5.70;99.90
13436;DHT22;6790;49.520;8.504;2022-12-07T16:46:08;5.70;99.90
13436;DHT22;6790;49.520;8.504;2022-12-07T16:48:39;5.70;99.90
13436;DHT22;6790;49.520;8.504;2022-12-07T16:51:07;5.60;99.90
13436;DHT22;6790;49.520;8.504;2022-12-07T16:53:35;5.60;99.90
13436;DHT22;6790;49.520;8.504;2022-12-07T16:56:02;5.60;99.90
13436;DHT22;6790;49.520;8.504;2022-12-07T16:58:28;5.60;99.90
13436;DHT22;6790;49.520;8.504;2022-12-07T17:00:54;5.60;99.90
13436;DHT22;6790;49.520;8.504;2022-12-07T17:03:20;5.60;99.90
13436;DHT22;6790;49.520;8.504;2022-12-07T17:05:46;5.50;99.90
13436;DHT22;6790;49.520;8.504;2022-12-07T17:08:13;5.50;99.90
13436;DHT22;6790;49.520;8.504;2022-12-07T17:10:41;5.60;99.90
13436;DHT22;6790;49.520;8.504;2022-12-07T17:13:09;5.50;99.90
13436;DHT22;6790;49.520;8.504;2022-12-07T17:16:02;5.50;99.90
13436;DHT22;6790;49.520;8.504;2022-12-07T17:18:35;5.50;99.90
13436;DHT22;6790;49.520;8.504;2022-12-07T17:21:06;5.40;99.90
13436;DHT22;6790;49.520;8.504;2022-12-07T17:23:33;5.40;99.90
13436;DHT22;6790;49.520;8.504;2022-12-07T17:26:11;5.40;99.90
13436;DHT22;6790;49.520;8.504;2022-12-07T17:28:41;5.40;99.90
13436;DHT22;6790;49.520;8.504;2022-12-07T17:31:11;5.40;99.90
13436;DHT22;6790;49.520;8.504;2022-12-07T17:33:37;5.40;99.90
13436;DHT22;6790;49.520;8.504;2022-12-07T17:36:15;5.30;99.90
13436;DHT22;6790;49.520;8.504;2022-12-07T17:38:51;5.40;99.90
13436;DHT22;6790;49.520;8.504;2022-12-07T17:41:27;5.30;99.90
13436;DHT22;6790;49.520;8.504;2022-12-07T17:44:14;5.30;99.90
13436;DHT22;6790;49.520;8.504;2022-12-07T17:46:41;5.20;99.90
13436;DHT22;6790;49.520;8.504;2022-12-07T17:49:07;5.20;99.90
13436;DHT22;6790;49.520;8.504;2022-12-07T17:51:33;5.20;99.90
13436;DHT22;6790;49.520;8.504;2022-12-07T17:54:18;5.20;99.90
13436;DHT22;6790;49.520;8.504;2022-12-07T17:56:45;5.20;99.90
13436;DHT22;6790;49.520;8.504;2022-12-07T17:59:11;5.20;99.90
13436;DHT22;6790;49.520;8.504;2022-12-07T18:01:37;5.20;99.90
13436;DHT22;6790;49.520;8.504;2022-12-07T18:04:03;5.10;99.90
13436;DHT22;6790;49.520;8.504;2022-12-07T18:06:29;5.10;99.90
13436;DHT22;6790;49.520;8.504;2022-12-07T18:08:55;5.10;99.90
13436;DHT22;6790;49.520;8.504;2022-12-07T18:11:21;5.10;99.90
13436;DHT22;6790;49.520;8.504;2022-12-07T18:13:47;5.10;99.90
13436;DHT22;6790;49.520;8.504;2022-12-07T18:16:18;5.10;99.90
13436;DHT22;6790;49.520;8.504;2022-12-07T18:18:47;5.10;99.90
13436;DHT22;6790;49.520;8.504;2022-12-07T18:21:17;5.10;99.90
13436;DHT22;6790;49.520;8.504;2022-12-07T18:23:47;5.10;99.90
13436;DHT22;6790;49.520;8.504;2022-12-07T18:26:14;5.00;99.90
13436;DHT22;6790;49.520;8.504;2022-12-07T18:28:43;5.00;99.90
13436;DHT22;6790;49.520;8.504;2022-12-07T18:31:10;5.00;99.90
13436;DHT22;6790;49.520;8.504;2022-12-07T18:33:37;5.00;99.90